Time;durP1;ratioP1;P1;durP2;ratioP2;P2;SDS_P1;SDS_P2;PMS_P1;PMS_P2;Temp;Humidity;BMP_temperature;BMP_pressure;BME280_temperature;BME280_humidity;BME280_pressure;Samples;Min_cycle;Max_cycle;Signal;HPM_P1;HPM_P2
2023/10/08 00:02:42;;;;;;;4.38;2.30;;;14.60;99.90;;;;;;12789129;23;20175;-89
2023/10/08 00:07:45;;;;;;;6.03;2.85;;;14.80;99.90;;;;;;12763254;23;20269;-89
2023/10/08 00:12:50;;;;;;;6.05;3.08;;;14.50;99.90;;;;;;12789302;23;20175;-89
2023/10/08 00:17:55;;;;;;;4.95;2.40;;;14.60;99.90;;;;;;12764353;23;20176;-88
2023/10/08 00:23:07;;;;;;;4.40;2.50;;;14.80;99.90;;;;;;12807035;23;20168;-89
2023/10/08 00:28:10;;;;;;;6.85;3.05;;;15.00;99.90;;;;;;12808733;23;20603;-88
2023/10/08 00:33:13;;;;;;;7.82;2.78;;;14.90;99.90;;;;;;12795510;23;20188;-88
2023/10/08 00:38:17;;;;;;;7.18;4.22;;;15.30;99.90;;;;;;12764181;23;20171;-88
2023/10/08 00:43:35;;;;;;;2.97;2.00;;;14.60;99.90;;;;;;12780749;23;20252;-88
2023/10/08 00:48:39;;;;;;;4.65;3.30;;;14.80;99.90;;;;;;12763122;23;20180;-88
2023/10/08 00:53:43;;;;;;;10.25;4.82;;;14.80;99.90;;;;;;12794502;23;20164;-88
2023/10/08 00:58:53;;;;;;;5.28;3.35;;;14.30;99.90;;;;;;12786484;23;20164;-88
2023/10/08 01:03:56;;;;;;;7.97;4.20;;;14.20;99.90;;;;;;12796525;23;20207;-88
2023/10/08 01:09:08;;;;;;;12.35;4.90;;;14.20;99.90;;;;;;12767146;23;20176;-88
2023/10/08 01:14:11;;;;;;;8.40;3.60;;;14.20;99.90;;;;;;12767096;23;20234;-88
2023/10/08 01:19:20;;;;;;;6.40;3.63;;;14.10;99.90;;;;;;12793836;23;20226;-88
2023/10/08 01:24:24;;;;;;;6.45;3.80;;;14.10;99.90;;;;;;12767064;23;20200;-88
2023/10/08 01:29:28;;;;;;;7.80;4.07;;;13.80;99.90;;;;;;12793624;23;20164;-88
2023/10/08 01:34:35;;;;;;;7.78;3.55;;;13.90;99.90;;;;;;12766540;23;20208;-89
2023/10/08 01:39:42;;;;;;;8.75;3.88;;;13.50;99.90;;;;;;12811635;23;20176;-88
2023/10/08 01:44:54;;;;;;;7.55;3.90;;;13.50;99.90;;;;;;12790486;23;20246;-88
2023/10/08 01:50:05;;;;;;;6.80;2.80;;;13.30;99.90;;;;;;12741840;23;20570;-88
2023/10/08 01:55:11;;;;;;;9.82;4.22;;;13.50;99.90;;;;;;12766412;23;20230;-88
2023/10/08 02:00:21;;;;;;;6.25;2.38;;;13.40;99.90;;;;;;12792763;23;20167;-88
2023/10/08 02:05:25;;;;;;;6.25;3.67;;;13.30;99.90;;;;;;12783641;23;20218;-88
2023/10/08 02:10:29;;;;;;;7.35;3.75;;;13.40;99.90;;;;;;12792813;23;20168;-88
2023/10/08 02:15:32;;;;;;;5.53;3.05;;;13.30;99.90;;;;;;12789946;23;20511;-88
2023/10/08 02:20:34;;;;;;;7.93;4.55;;;13.30;99.90;;;;;;12766921;23;20164;-88
2023/10/08 02:25:40;;;;;;;7.10;3.83;;;13.50;99.90;;;;;;12765504;23;20258;-88
2023/10/08 02:30:43;;;;;;;6.32;3.90;;;12.90;99.90;;;;;;12808083;23;20192;-88
2023/10/08 02:35:47;;;;;;;7.93;4.30;;;12.90;99.90;;;;;;12765408;23;20281;-87
2023/10/08 02:40:50;;;;;;;3.78;3.08;;;13.10;99.90;;;;;;12765036;23;20701;-88
2023/10/08 02:45:55;;;;;;;7.80;4.07;;;13.10;99.90;;;;;;12792084;23;20183;-88
2023/10/08 02:51:06;;;;;;;9.93;5.22;;;13.30;99.90;;;;;;12765262;23;20172;-88
2023/10/08 02:56:13;;;;;;;5.50;3.95;;;13.00;99.90;;;;;;12790784;23;20517;-88
2023/10/08 03:01:15;;;;;;;7.45;3.53;;;12.90;99.90;;;;;;12764654;23;20183;-88
2023/10/08 03:06:19;;;;;;;7.63;3.97;;;12.90;99.90;;;;;;12791859;23;20191;-88
2023/10/08 03:11:25;;;;;;;12.20;4.30;;;12.90;99.90;;;;;;12764082;23;20577;-88
2023/10/08 03:16:33;;;;;;;5.78;4.00;;;13.20;99.90;;;;;;12789420;23;20187;-89
2023/10/08 03:26:39;;;;;;;4.63;2.80;;;13.00;99.90;;;;;;12792301;23;20538;-88
2023/10/08 03:37:05;;;;;;;5.18;2.30;;;13.00;99.90;;;;;;12765289;23;20233;-88
2023/10/08 03:42:10;;;;;;;3.22;1.70;;;13.00;99.90;;;;;;12783850;23;20483;-87
2023/10/08 03:47:12;;;;;;;8.00;1.48;;;13.00;99.90;;;;;;12791596;23;20188;-87
2023/10/08 03:52:15;;;;;;;2.53;1.45;;;12.70;99.90;;;;;;12791887;23;20513;-88
2023/10/08 03:57:25;;;;;;;1.75;1.17;;;12.30;99.90;;;;;;12791963;23;20168;-88
2023/10/08 04:02:41;;;;;;;8.15;2.00;;;12.30;99.90;;;;;;12791233;23;20230;-88
2023/10/08 04:13:01;;;;;;;1.98;1.40;;;12.30;99.90;;;;;;12792079;23;20171;-88
2023/10/08 04:18:04;;;;;;;4.90;1.40;;;12.20;99.90;;;;;;12791367;23;20175;-89
2023/10/08 04:23:20;;;;;;;2.95;1.50;;;11.90;99.90;;;;;;12791557;23;20209;-88
2023/10/08 04:28:28;;;;;;;5.32;1.73;;;11.80;99.90;;;;;;12767912;23;20226;-88
2023/10/08 04:33:33;;;;;;;4.78;1.20;;;11.40;99.90;;;;;;12798429;23;20577;-86
2023/10/08 04:38:40;;;;;;;2.08;1.20;;;11.30;99.90;;;;;;12767915;23;20249;-87
2023/10/08 04:43:43;;;;;;;4.03;0.98;;;11.40;99.90;;;;;;12768440;23;20634;-87
2023/10/08 04:48:46;;;;;;;1.55;1.10;;;11.50;99.90;;;;;;12796859;23;20188;-87
2023/10/08 04:53:49;;;;;;;1.40;1.00;;;11.60;99.90;;;;;;12794992;23;20179;-87
2023/10/08 04:58:51;;;;;;;1.27;0.98;;;11.40;99.90;;;;;;12794632;23;20483;-87
2023/10/08 05:09:10;;;;;;;4.22;1.23;;;11.40;99.90;;;;;;12793275;23;20196;-87
2023/10/08 05:19:50;;;;;;;1.30;0.80;;;11.10;99.90;;;;;;12793115;23;20225;-87
2023/10/08 05:30:53;;;;;;;1.73;1.08;;;10.90;99.90;;;;;;12714815;23;20199;-88
2023/10/08 05:36:10;;;;;;;2.83;1.02;;;11.00;99.90;;;;;;12811468;23;20214;-87
2023/10/08 05:41:27;;;;;;;1.77;0.80;;;10.90;99.90;;;;;;12766744;23;20179;-87
2023/10/08 05:57:06;;;;;;;1.70;0.85;;;10.70;99.90;;;;;;12767010;23;20179;-87
2023/10/08 06:02:28;;;;;;;3.63;1.10;;;10.60;99.90;;;;;;12778614;23;20271;-87
2023/10/08 06:07:47;;;;;;;2.90;1.40;;;10.70;99.90;;;;;;12792109;23;20676;-87
2023/10/08 06:13:01;;;;;;;1.27;1.17;;;10.70;99.90;;;;;;12785629;23;20168;-87
2023/10/08 06:18:04;;;;;;;1.05;0.70;;;11.00;99.90;;;;;;12766189;23;20176;-87
2023/10/08 06:23:07;;;;;;;1.50;1.15;;;11.20;99.90;;;;;;12793532;23;20566;-87
2023/10/08 06:28:20;;;;;;;3.13;1.17;;;11.40;99.90;;;;;;12766114;23;20199;-87
2023/10/08 06:33:33;;;;;;;1.92;1.00;;;11.70;99.90;;;;;;12798346;23;20191;-86
2023/10/08 06:38:38;;;;;;;4.28;1.05;;;11.80;99.90;;;;;;12765708;23;20483;-87
2023/10/08 06:44:05;;;;;;;2.03;1.52;;;11.90;99.90;;;;;;12766394;23;20171;-86
2023/10/08 06:49:11;;;;;;;1.38;1.15;;;12.00;99.90;;;;;;12763074;23;20191;-86
2023/10/08 06:54:17;;;;;;;1.27;0.85;;;12.20;99.90;;;;;;12765311;23;20234;-87
2023/10/08 06:59:23;;;;;;;1.02;0.77;;;12.20;99.90;;;;;;12791003;23;20175;-86
2023/10/08 07:04:27;;;;;;;1.95;0.90;;;12.90;99.90;;;;;;12793165;23;20203;-87
2023/10/08 07:09:30;;;;;;;1.67;1.00;;;13.10;99.90;;;;;;12792257;23;20192;-87
2023/10/08 07:14:33;;;;;;;1.65;1.20;;;12.90;99.90;;;;;;12791517;23;20195;-86
2023/10/08 07:19:40;;;;;;;1.38;0.88;;;13.20;99.90;;;;;;12808075;23;20171;-87
2023/10/08 07:24:45;;;;;;;2.42;0.70;;;13.50;99.90;;;;;;12816510;23;20218;-86
2023/10/08 07:29:49;;;;;;;2.03;0.70;;;13.60;99.90;;;;;;12768756;23;20187;-85
2023/10/08 07:34:57;;;;;;;0.70;0.68;;;13.10;99.90;;;;;;12766299;23;20204;-85
2023/10/08 07:40:02;;;;;;;3.90;0.50;;;13.10;99.90;;;;;;12813382;23;20171;-86
2023/10/08 07:45:06;;;;;;;1.35;0.80;;;13.30;99.90;;;;;;12792016;23;20175;-85
2023/10/08 07:50:12;;;;;;;1.38;1.00;;;13.10;99.90;;;;;;12814063;23;20191;-86
2023/10/08 07:55:17;;;;;;;1.75;0.80;;;12.90;99.90;;;;;;12770226;23;20175;-87
2023/10/08 08:00:22;;;;;;;1.08;0.55;;;12.90;99.90;;;;;;12747973;23;20179;-86
2023/10/08 08:05:26;;;;;;;1.23;0.70;;;13.10;99.90;;;;;;12800698;23;20167;-86
2023/10/08 08:10:29;;;;;;;2.35;0.52;;;13.20;99.90;;;;;;12800816;23;20179;-87
2023/10/08 08:15:34;;;;;;;1.67;1.02;;;12.90;92.50;;;;;;12779393;23;20233;-87
2023/10/08 08:20:43;;;;;;;1.83;0.60;;;12.80;99.90;;;;;;12823290;23;20489;-87
2023/10/08 08:25:55;;;;;;;1.85;0.50;;;13.00;94.40;;;;;;12823017;23;20184;-87
2023/10/08 08:31:13;;;;;;;0.60;0.40;;;12.60;91.40;;;;;;12773835;23;20204;-87
2023/10/08 08:36:15;;;;;;;2.17;0.60;;;13.00;97.70;;;;;;12769969;23;20249;-87
2023/10/08 08:41:20;;;;;;;1.10;0.55;;;13.10;91.90;;;;;;12795437;23;20555;-87
2023/10/08 08:46:32;;;;;;;1.02;0.68;;;13.20;94.00;;;;;;12767581;23;20525;-87
2023/10/08 08:51:35;;;;;;;0.98;0.50;;;12.90;95.30;;;;;;12785473;23;20168;-87
2023/10/08 08:56:40;;;;;;;0.95;0.73;;;13.20;96.70;;;;;;12794380;23;20176;-87
2023/10/08 09:01:44;;;;;;;3.20;0.63;;;13.40;99.90;;;;;;12792667;23;20642;-88
2023/10/08 09:06:48;;;;;;;1.05;0.57;;;13.00;91.10;;;;;;12794113;23;20580;-87
2023/10/08 09:11:52;;;;;;;0.70;0.47;;;13.00;90.90;;;;;;12793725;23;20512;-87
2023/10/08 09:16:56;;;;;;;1.10;0.65;;;13.20;94.50;;;;;;12794261;23;20235;-87
2023/10/08 09:22:07;;;;;;;0.88;0.68;;;14.00;99.90;;;;;;12794082;23;20167;-87
2023/10/08 09:27:18;;;;;;;1.17;0.60;;;13.80;87.90;;;;;;12792880;23;20199;-84
2023/10/08 09:32:23;;;;;;;1.95;0.68;;;13.70;65.60;;;;;;12792101;23;20615;-86
2023/10/08 09:37:27;;;;;;;1.42;0.40;;;13.60;90.90;;;;;;12793253;23;20230;-88
2023/10/08 09:42:30;;;;;;;1.35;0.80;;;14.10;93.20;;;;;;12792406;23;20245;-87
2023/10/08 09:47:38;;;;;;;0.70;0.40;;;14.00;93.50;;;;;;12767175;23;20188;-87
2023/10/08 09:53:00;;;;;;;1.33;0.82;;;14.10;51.10;;;;;;12766602;23;20254;-87
2023/10/08 09:58:03;;;;;;;0.82;0.50;;;14.40;75.60;;;;;;12810811;23;20172;-87
2023/10/08 10:03:07;;;;;;;1.38;0.95;;;14.10;52.70;;;;;;12793143;23;20172;-87
2023/10/08 10:08:10;;;;;;;0.60;0.50;;;14.30;98.60;;;;;;12792749;23;20590;-88
2023/10/08 10:13:15;;;;;;;0.40;0.30;;;14.80;63.70;;;;;;12794161;23;20515;-87
2023/10/08 10:18:25;;;;;;;4.47;0.60;;;14.20;48.10;;;;;;12765591;23;20184;-87
2023/10/08 10:23:36;;;;;;;1.30;0.55;;;14.30;95.30;;;;;;12790663;23;20238;-87
2023/10/08 10:28:38;;;;;;;0.50;0.45;;;14.30;78.40;;;;;;12791771;23;20195;-88
2023/10/08 10:33:41;;;;;;;1.50;0.63;;;14.90;89.20;;;;;;12792333;23;20187;-87
2023/10/08 10:38:45;;;;;;;0.43;0.38;;;15.20;99.90;;;;;;12765643;23;20176;-87
2023/10/08 10:43:52;;;;;;;2.65;0.60;;;14.80;51.30;;;;;;12669379;23;20273;-87
2023/10/08 10:49:18;;;;;;;0.50;0.40;;;15.10;65.50;;;;;;12787639;23;20200;-87
2023/10/08 10:54:23;;;;;;;0.75;0.50;;;14.40;31.90;;;;;;12789288;23;20171;-87
2023/10/08 10:59:27;;;;;;;1.33;0.52;;;14.60;88.30;;;;;;12793057;23;20237;-87
2023/10/08 11:04:31;;;;;;;0.98;0.52;;;14.60;56.80;;;;;;12817151;23;20168;-87
2023/10/08 11:09:38;;;;;;;0.90;0.55;;;14.80;44.60;;;;;;12788809;23;20199;-87
2023/10/08 11:14:42;;;;;;;0.88;0.50;;;14.80;35.70;;;;;;12781358;23;20242;-87
2023/10/08 11:19:48;;;;;;;0.45;0.30;;;15.10;88.70;;;;;;12782063;23;20222;-87
2023/10/08 11:24:53;;;;;;;1.30;0.63;;;15.10;56.20;;;;;;12789583;23;20206;-87
2023/10/08 11:29:58;;;;;;;0.50;0.30;;;15.00;51.70;;;;;;12818771;23;20218;-88
2023/10/08 11:35:15;;;;;;;2.28;0.40;;;15.20;46.50;;;;;;12793173;23;20176;-87
2023/10/08 11:40:48;;;;;;;0.60;0.30;;;15.50;50.70;;;;;;12790082;23;20214;-87
2023/10/08 11:45:52;;;;;;;0.80;0.30;;;15.30;74.70;;;;;;12780673;23;20191;-87
2023/10/08 11:50:57;;;;;;;1.98;0.63;;;15.50;78.70;;;;;;12783716;23;20586;-86
2023/10/08 11:56:01;;;;;;;0.55;0.30;;;15.70;71.80;;;;;;12812408;23;20206;-87
2023/10/08 12:01:05;;;;;;;3.15;0.60;;;15.40;66.60;;;;;;12807461;23;20745;-86
2023/10/08 12:06:08;;;;;;;0.90;0.75;;;15.20;90.50;;;;;;12809243;23;20554;-87
2023/10/08 12:11:12;;;;;;;0.52;0.32;;;14.90;37.40;;;;;;12778492;23;20494;-87
2023/10/08 12:16:18;;;;;;;1.02;0.60;;;15.10;82.20;;;;;;12774607;23;20234;-87
2023/10/08 12:21:21;;;;;;;1.67;0.40;;;14.80;53.10;;;;;;12804601;23;20168;-87
2023/10/08 12:26:25;;;;;;;0.93;0.40;;;14.70;82.50;;;;;;12779026;23;20646;-87
2023/10/08 12:31:29;;;;;;;0.65;0.43;;;15.00;70.80;;;;;;12774752;23;20635;-86
2023/10/08 12:36:36;;;;;;;0.82;0.30;;;14.60;50.90;;;;;;12808059;23;20561;-86
2023/10/08 12:41:38;;;;;;;0.50;0.50;;;14.60;35.50;;;;;;12763749;23;20226;-86
2023/10/08 12:46:43;;;;;;;0.50;0.30;;;14.50;91.40;;;;;;12791181;23;20196;-86
2023/10/08 12:51:49;;;;;;;2.85;0.60;;;14.00;23.10;;;;;;12766834;23;20559;-86
2023/10/08 12:56:54;;;;;;;1.77;0.77;;;12.90;25.20;;;;;;12811641;23;20171;-86
2023/10/08 13:01:57;;;;;;;3.03;0.43;;;12.70;28.90;;;;;;12768305;23;20213;-86
2023/10/08 13:07:03;;;;;;;5.20;0.70;;;13.00;25.60;;;;;;12766806;23;20231;-87
2023/10/08 13:12:05;;;;;;;1.50;0.57;;;13.00;26.50;;;;;;12766962;23;20171;-86
2023/10/08 13:17:10;;;;;;;2.83;0.63;;;12.80;24.20;;;;;;12793842;23;20226;-87
2023/10/08 13:22:19;;;;;;;1.03;0.67;;;13.20;24.50;;;;;;12793598;23;20171;-86
2023/10/08 13:27:23;;;;;;;0.70;0.50;;;13.00;25.80;;;;;;12793225;23;20257;-86
2023/10/08 13:32:26;;;;;;;1.93;0.90;;;13.00;26.20;;;;;;12809932;23;20168;-86
2023/10/08 13:37:29;;;;;;;2.93;0.50;;;12.90;26.80;;;;;;12791731;23;20801;-87
2023/10/08 13:42:31;;;;;;;4.33;1.00;;;12.50;25.90;;;;;;12792897;23;20503;-87
2023/10/08 13:47:34;;;;;;;1.40;0.90;;;12.30;30.70;;;;;;12796253;23;20246;-87
2023/10/08 13:52:39;;;;;;;0.83;0.40;;;12.30;64.50;;;;;;12765804;23;20178;-86
2023/10/08 13:57:42;;;;;;;0.90;0.60;;;12.70;44.10;;;;;;12789752;23;20507;-86
2023/10/08 14:02:45;;;;;;;1.48;0.50;;;13.10;64.50;;;;;;12764791;23;20563;-86
2023/10/08 14:07:49;;;;;;;1.75;0.55;;;13.20;53.10;;;;;;12791015;23;20184;-84
2023/10/08 14:12:51;;;;;;;0.65;0.30;;;13.20;75.10;;;;;;12789421;23;20227;-85
2023/10/08 14:17:58;;;;;;;1.88;0.57;;;13.80;54.40;;;;;;12740551;23;20222;-85
2023/10/08 14:23:03;;;;;;;0.50;0.37;;;14.10;47.00;;;;;;12790018;23;20180;-85
2023/10/08 14:28:08;;;;;;;0.98;0.55;;;14.20;45.10;;;;;;12789878;23;20199;-85
2023/10/08 14:33:23;;;;;;;1.20;0.70;;;13.90;30.00;;;;;;12792311;23;20164;-85
2023/10/08 14:43:48;;;;;;;0.73;0.45;;;13.90;35.60;;;;;;12805803;23;20191;-85
2023/10/08 14:48:52;;;;;;;3.15;0.82;;;14.10;39.20;;;;;;12765336;23;20219;-85
2023/10/08 14:53:55;;;;;;;0.70;0.50;;;14.00;41.80;;;;;;12789483;23;20211;-85
2023/10/08 14:58:58;;;;;;;1.50;0.82;;;14.10;44.40;;;;;;12788991;23;20576;-87
2023/10/08 15:04:04;;;;;;;2.45;0.93;;;14.00;29.50;;;;;;12764752;23;20254;-87
2023/10/08 15:09:08;;;;;;;3.03;0.50;;;14.30;53.70;;;;;;12806965;23;20203;-87
2023/10/08 15:14:11;;;;;;;0.95;0.55;;;14.70;35.40;;;;;;12789094;23;20234;-86
2023/10/08 15:19:15;;;;;;;0.95;0.55;;;14.80;32.20;;;;;;12789904;23;20565;-86
2023/10/08 15:24:22;;;;;;;1.80;1.02;;;14.60;32.30;;;;;;12763612;23;20183;-86
2023/10/08 15:29:27;;;;;;;1.75;1.05;;;14.30;32.90;;;;;;12784058;23;20595;-87
2023/10/08 15:34:30;;;;;;;1.15;0.82;;;14.30;37.30;;;;;;12789495;23;20226;-87
2023/10/08 15:39:41;;;;;;;2.75;1.95;;;14.00;41.70;;;;;;12809248;23;20487;-87
2023/10/08 15:44:44;;;;;;;3.28;1.30;;;13.90;40.90;;;;;;12790448;23;20203;-87
2023/10/08 15:49:47;;;;;;;3.20;0.98;;;13.70;46.90;;;;;;12763187;23;20553;-87
2023/10/08 15:54:50;;;;;;;2.55;1.52;;;13.60;47.90;;;;;;12788454;23;20172;-86
2023/10/08 15:59:53;;;;;;;1.70;1.20;;;13.50;47.50;;;;;;12788645;23;20582;-87
2023/10/08 16:04:56;;;;;;;2.95;1.55;;;13.50;61.90;;;;;;12786517;23;20538;-87
2023/10/08 16:09:59;;;;;;;4.20;2.17;;;13.50;59.40;;;;;;12761378;23;20585;-87
2023/10/08 16:15:01;;;;;;;4.88;3.72;;;13.40;64.10;;;;;;12786835;23;20561;-87
2023/10/08 16:20:09;;;;;;;5.35;4.18;;;13.10;59.90;;;;;;12789144;23;20502;-87
2023/10/08 16:25:16;;;;;;;3.80;2.30;;;13.10;73.10;;;;;;12765890;23;20180;-86
2023/10/08 16:30:25;;;;;;;2.17;1.63;;;12.90;67.10;;;;;;12763223;23;20196;-87
2023/10/08 16:35:28;;;;;;;2.38;2.00;;;12.90;71.90;;;;;;12808972;23;20601;-86
2023/10/08 16:40:31;;;;;;;3.60;1.02;;;12.90;70.30;;;;;;12790356;23;20180;-87
2023/10/08 16:45:35;;;;;;;1.48;0.95;;;12.80;73.20;;;;;;12763172;23;20207;-87
2023/10/08 16:50:39;;;;;;;3.10;2.15;;;12.60;79.10;;;;;;12782914;23;20237;-87
2023/10/08 16:55:45;;;;;;;3.10;1.95;;;12.50;84.70;;;;;;12787000;23;20172;-87
2023/10/08 17:00:50;;;;;;;2.28;1.50;;;12.50;82.20;;;;;;12760877;23;20538;-87
2023/10/08 17:05:53;;;;;;;3.35;2.58;;;12.50;88.30;;;;;;12762867;23;20207;-87
2023/10/08 17:10:56;;;;;;;3.60;2.03;;;12.40;85.80;;;;;;12791314;23;20196;-87
2023/10/08 17:15:59;;;;;;;3.90;2.40;;;12.30;91.00;;;;;;12790323;23;20180;-88
2023/10/08 17:21:01;;;;;;;3.17;2.50;;;12.40;82.80;;;;;;12793011;23;20172;-87
2023/10/08 17:26:04;;;;;;;3.50;3.03;;;12.30;90.60;;;;;;12765353;23;20288;-87
2023/10/08 17:31:07;;;;;;;6.93;4.65;;;12.20;90.70;;;;;;12792130;23;20582;-87
2023/10/08 17:36:13;;;;;;;7.85;3.97;;;12.50;89.90;;;;;;12791419;23;20226;-86
2023/10/08 17:41:17;;;;;;;6.40;3.40;;;12.70;76.00;;;;;;12790896;23;20226;-86
2023/10/08 17:46:20;;;;;;;5.25;3.40;;;12.70;74.50;;;;;;12792607;23;20215;-85
2023/10/08 17:51:24;;;;;;;4.70;3.88;;;12.60;71.90;;;;;;12792447;23;20585;-85
2023/10/08 17:56:28;;;;;;;5.13;3.22;;;12.60;70.10;;;;;;12766135;23;20172;-86
2023/10/08 18:01:33;;;;;;;7.22;5.72;;;12.40;72.60;;;;;;12764735;23;20171;-86
2023/10/08 18:06:36;;;;;;;7.22;5.47;;;12.20;70.90;;;;;;12790061;23;20198;-86
2023/10/08 18:11:41;;;;;;;5.65;4.38;;;12.00;67.90;;;;;;12792239;23;20191;-86
2023/10/08 18:16:46;;;;;;;15.52;12.02;;;11.90;73.60;;;;;;12791306;23;20234;-86
2023/10/08 18:21:50;;;;;;;5.30;4.47;;;11.70;75.60;;;;;;12765909;23;20202;-86
2023/10/08 18:26:53;;;;;;;10.02;7.25;;;11.70;78.70;;;;;;12791605;23;20180;-86
2023/10/08 18:31:56;;;;;;;9.35;8.23;;;11.40;69.90;;;;;;12791056;23;20196;-86
2023/10/08 18:37:00;;;;;;;12.25;9.50;;;11.30;80.20;;;;;;12764460;23;20526;-87
2023/10/08 18:42:05;;;;;;;20.05;11.02;;;10.20;78.20;;;;;;12790749;23;20171;-86
2023/10/08 18:47:07;;;;;;;11.75;8.23;;;9.80;87.60;;;;;;12764207;23;20223;-86
2023/10/08 18:52:11;;;;;;;7.50;5.90;;;9.10;91.20;;;;;;12791243;23;20214;-86
2023/10/08 18:57:15;;;;;;;11.82;8.43;;;9.00;95.60;;;;;;12790453;23;20222;-87
2023/10/08 19:02:17;;;;;;;8.00;5.57;;;8.80;95.90;;;;;;12764033;23;20183;-87
2023/10/08 19:07:20;;;;;;;6.72;5.72;;;9.10;97.40;;;;;;12739436;23;20179;-87
2023/10/08 19:12:23;;;;;;;15.90;10.32;;;9.10;97.80;;;;;;12789678;23;20534;-86
2023/10/08 19:17:29;;;;;;;20.10;14.60;;;6.10;97.50;;;;;;12765240;23;20172;-86
2023/10/08 19:22:33;;;;;;;20.97;16.67;;;;;;;;;;12809850;23;20169;-86
2023/10/08 19:27:36;;;;;;;15.83;10.83;;;;;;;;;;12790650;23;20179;-86
2023/10/08 19:32:39;;;;;;;6.67;4.93;;;;;;;;;;12789992;23;20195;-86
2023/10/08 19:37:45;;;;;;;29.70;17.67;;;;;;;;;;12790754;23;20172;-86
2023/10/08 19:42:48;;;;;;;33.07;19.37;;;6.70;99.90;;;;;;12789643;23;20183;-85
2023/10/08 19:47:51;;;;;;;42.27;23.43;;;;;;;;;;12790578;23;20196;-85
2023/10/08 19:52:54;;;;;;;29.47;18.43;;;6.10;99.90;;;;;;12738874;23;20195;-85
2023/10/08 19:57:57;;;;;;;34.03;19.93;;;5.40;99.90;;;;;;12790384;23;20167;-85
2023/10/08 20:03:00;;;;;;;28.80;16.73;;;5.90;99.90;;;;;;12807846;23;20226;-86
2023/10/08 20:08:04;;;;;;;37.27;21.33;;;5.70;99.90;;;;;;12785765;23;20262;-86
2023/10/08 20:13:10;;;;;;;34.30;22.83;;;;;;;;;;12790963;23;20191;-86
2023/10/08 20:18:13;;;;;;;27.07;17.67;;;5.80;99.90;;;;;;12809345;23;20222;-86
2023/10/08 20:23:17;;;;;;;29.17;19.30;;;5.60;99.90;;;;;;12764145;23;20227;-86
2023/10/08 20:28:23;;;;;;;37.87;19.77;;;5.10;99.90;;;;;;12759594;23;20172;-87
2023/10/08 20:33:29;;;;;;;37.97;19.73;;;5.50;99.90;;;;;;12788336;23;20164;-87
2023/10/08 20:38:32;;;;;;;72.87;31.87;;;5.70;99.90;;;;;;12761618;23;20565;-87
2023/10/08 20:43:35;;;;;;;142.10;57.40;;;5.30;99.90;;;;;;12788282;23;20176;-87
2023/10/08 20:48:40;;;;;;;72.90;31.50;;;;;;;;;;12761783;23;20658;-87
2023/10/08 20:53:46;;;;;;;164.60;67.10;;;;;;;;;;12788566;23;20700;-87
2023/10/08 20:58:49;;;;;;;172.23;67.60;;;5.80;99.90;;;;;;12762532;23;20659;-87
2023/10/08 21:03:52;;;;;;;129.33;50.20;;;;;;;;;;12788812;23;20278;-87
2023/10/08 21:08:57;;;;;;;125.63;53.53;;;;;;;;;;12791486;23;20511;-87
2023/10/08 21:14:03;;;;;;;169.25;68.00;;;;;;;;;;12766508;23;20693;-87
2023/10/08 21:19:08;;;;;;;143.20;58.00;;;;;;;;;;12791871;23;20226;-87
2023/10/08 21:24:12;;;;;;;123.82;52.50;;;;;;;;;;12764787;23;20222;-87
2023/10/08 21:29:16;;;;;;;116.72;48.25;;;5.00;99.90;;;;;;12792301;23;20580;-87
2023/10/08 21:34:20;;;;;;;109.20;48.72;;;5.30;99.90;;;;;;12791846;23;20207;-87
2023/10/08 21:39:23;;;;;;;130.20;58.23;;;5.50;99.90;;;;;;12791868;23;20195;-87
2023/10/08 21:44:28;;;;;;;97.25;45.13;;;;;;;;;;12791616;23;20192;-87
2023/10/08 21:49:32;;;;;;;72.90;34.40;;;;;;;;;;12764701;23;20195;-87
2023/10/08 21:54:36;;;;;;;100.65;44.53;;;;;;;;;;12791576;23;20191;-87
2023/10/08 21:59:40;;;;;;;84.55;35.72;;;;;;;;;;12791264;23;20589;-87
2023/10/08 22:04:45;;;;;;;63.03;29.63;;;;;;;;;;12789772;23;20275;-87
2023/10/08 22:09:47;;;;;;;43.73;21.27;;;4.80;99.90;;;;;;12790305;23;20647;-87
2023/10/08 22:14:52;;;;;;;36.23;17.97;;;5.40;99.90;;;;;;12790457;23;20546;-88
2023/10/08 22:19:55;;;;;;;47.30;23.20;;;4.80;99.90;;;;;;12765338;23;20168;-87
2023/10/08 22:24:58;;;;;;;61.70;28.45;;;5.40;99.90;;;;;;12790775;23;20172;-88
2023/10/08 22:30:01;;;;;;;37.83;20.33;;;5.50;99.90;;;;;;12789593;23;20282;-88
2023/10/08 22:35:14;;;;;;;46.05;23.42;;;;;;;;;;12764196;23;20500;-88
2023/10/08 22:40:19;;;;;;;48.85;23.90;;;5.00;99.90;;;;;;12790215;23;20555;-87
2023/10/08 22:45:27;;;;;;;31.17;16.77;;;5.30;99.90;;;;;;12788779;23;20242;-88
2023/10/08 22:50:34;;;;;;;34.42;18.23;;;5.10;99.90;;;;;;12807944;23;20187;-88
2023/10/08 22:55:38;;;;;;;39.42;20.08;;;;;;;;;;12789309;23;20531;-87
2023/10/08 23:00:41;;;;;;;45.50;22.98;;;5.60;99.90;;;;;;12789052;23;20179;-87
2023/10/08 23:05:46;;;;;;;48.70;24.87;;;5.10;99.90;;;;;;12787491;23;20172;-87
2023/10/08 23:10:53;;;;;;;63.50;29.00;;;5.30;99.90;;;;;;12789453;23;20187;-87
2023/10/08 23:15:59;;;;;;;69.73;29.87;;;5.50;99.90;;;;;;12797605;23;20214;-88
2023/10/08 23:21:06;;;;;;;60.13;27.77;;;;;;;;;;12762930;23;20172;-87
2023/10/08 23:26:11;;;;;;;58.70;26.58;;;;;;;;;;12808223;23;20560;-89
2023/10/08 23:31:15;;;;;;;52.73;24.73;;;;;;;;;;12788527;23;20189;-88
2023/10/08 23:36:26;;;;;;;47.97;23.43;;;;;;;;;;12789652;23;20172;-89
2023/10/08 23:41:42;;;;;;;48.80;23.00;;;;;;;;;;12807799;23;20480;-88
2023/10/08 23:47:01;;;;;;;48.07;23.60;;;;;;;;;;12761775;23;20230;-89
2023/10/08 23:52:08;;;;;;;50.23;22.53;;;;;;;;;;12780897;23;20261;-89
2023/10/08 23:57:18;;;;;;;47.58;23.10;;;;;;;;;;12789851;23;20230;-88
